Aérodrome :
LOGIN :

S'inscrire | Disclaimer

   EN    FR    IT 

 










Légende :    VFR   VFR Marginal   IFR   IFR Intensif   IFR Très Intensif
Visi : 
Plafond : 
>= 8 km
>= 3000ft
5 à 8 km
1000 à 3000 ft
1500m à 5 km
500 à 1000 ft
800 à 1500m
200 à 500 ft
< 800m
< 200 ft
Symboles :   Orages  Brouillard  Fortes neiges  Fortes précipitations  Vent > 20 kt
SIGMETs :   Divers  Orages  Givrage  Turbulence  Onde Orograph.  Cendres Volcan.







- Altitude de l'aérodrome : 598 ft
- Code IATA : BQH
- Voir les cartes d'approche


EGKB - Biggin Hill

DERNIER METAR :
  • 181820Z 26004KT CAVOK 03/03 Q1032

METARs EXPIRÉS :
  • 181750Z VRB02KT CAVOK 03/02 Q1031
  • 181720Z 25004KT CAVOK 04/03 Q1031
  • 181650Z 28005KT CAVOK 04/03 Q1031
  • 181620Z 27004KT CAVOK 05/03 Q1031
  • 181550Z 30003KT CAVOK 05/03 Q1030

TAF TAF EGKB
Valide du 18 à 18h jusqu'au 18 à 23h UTC


181704Z 1818/1823 VRB03KT CAVOK
BECMG 1818/1820 9000
PROB30 1818/1820 0300 FG BKN001
BECMG 1820/1822 0300 FG FZFG VV///
Pas de NOTAMs connus pour ce terrain.



MET'MAP, la Météo Aéronautique d'un coup d'oeil ! - Copyright ORBIFLY Décembre 2007 - Disclaimer

ORBIFLY MET'MAP TEAM :

Programmation & Développement : Alexandra Zaïnal
Conception & Développement : Baudouin d'Aumeries
Co-Programmation & Développement : Marc-Olivier Méhu
Soutien technique & logistique : Manuel Goepfert

Contact : metmap@orbifly.com




SOURCES & CREDITS :

   NOAA